Montpelier, Mississippi
Current Conditions -  °F | °C
As of 6:15 AM on Saturday 20 Dec 2014 (Local Time) from KSTF Reporting Station
Haze Haze  
Wind Chill:   Ceiling: Unl
Heat Index:   Visibility: 2.5mi
Dew Point:   Wind: 0mph
Humidity: 93%   Direction: NA
Pressure: 30.22"   Gusts: NA
Location:  33.72°N, 88.95°W
Report Text: KSTF 201215Z AUTO 00000KT 2 1/2SM BR CLR 02/01 A3022 RMK AO2
Loading
Personal Weather Stations






























Interactive Weather Map New forecast layout! Learn more

10-Day Weather Forecast

Advertisements
Track Severe Weather on mobile